Time;durP1;ratioP1;P1;durP2;ratioP2;P2;SDS_P1;SDS_P2;PMS_P1;PMS_P2;Temp;Humidity;BMP_temperature;BMP_pressure;BME280_temperature;BME280_humidity;BME280_pressure;Samples;Min_cycle;Max_cycle;Signal;HPM_P1;HPM_P2
2022/03/26 00:01:50;;;;;;;30.77;14.07;;;;;;;12.50;39.62;103065.34;4971216;28;124341;-61
2022/03/26 00:04:18;;;;;;;30.88;14.13;;;;;;;12.46;39.33;103071.63;4974902;28;109917;-60
2022/03/26 00:06:45;;;;;;;30.20;13.52;;;;;;;12.42;39.57;103067.28;4973921;28;109125;-60
2022/03/26 00:09:12;;;;;;;28.05;13.50;;;;;;;12.38;39.73;103065.56;4973637;28;124817;-60
2022/03/26 00:11:39;;;;;;;26.55;13.18;;;;;;;12.34;39.87;103063.84;4974311;28;124250;-60
2022/03/26 00:14:07;;;;;;;33.42;13.55;;;;;;;12.31;40.00;103064.78;4974554;28;109469;-61
2022/03/26 00:16:35;;;;;;;33.10;14.20;;;;;;;12.29;40.07;103065.72;4972328;28;110301;-62
2022/03/26 00:19:02;;;;;;;31.77;14.80;;;;;;;12.24;40.11;103066.69;4971199;28;124166;-61
2022/03/26 00:21:29;;;;;;;35.17;13.65;;;;;;;12.21;40.14;103066.72;4973551;28;123713;-60
2022/03/26 00:23:56;;;;;;;26.05;12.55;;;;;;;12.19;39.86;103068.53;4974139;28;109911;-60
2022/03/26 00:26:23;;;;;;;31.50;13.18;;;;;;;12.15;40.07;103069.47;4972446;28;110050;-60
2022/03/26 00:28:52;;;;;;;27.33;13.55;;;;;;;12.11;40.41;103062.47;4971391;28;124822;-61
2022/03/26 00:31:19;;;;;;;29.88;13.93;;;;;;;12.07;40.27;103066.06;4972386;28;123946;-60
2022/03/26 00:33:46;;;;;;;29.77;13.40;;;;;;;12.03;40.43;103069.66;4974043;28;109111;-61
2022/03/26 00:36:13;;;;;;;29.10;13.65;;;;;;;12.00;40.48;103064.41;4974734;28;109773;-60
2022/03/26 00:38:40;;;;;;;28.73;13.80;;;;;;;11.96;40.42;103062.69;4971470;28;124349;-60
2022/03/26 00:41:07;;;;;;;30.23;14.60;;;;;;;11.93;40.51;103073.38;4971726;28;124378;-61
2022/03/26 00:43:34;;;;;;;34.10;15.27;;;;;;;11.90;40.70;103062.78;4970102;28;109134;-61
2022/03/26 00:46:02;;;;;;;30.08;13.70;;;;;;;11.85;40.73;103060.19;4973403;28;110127;-61
2022/03/26 00:48:29;;;;;;;28.27;14.10;;;;;;;11.81;40.72;103064.66;4973652;28;124395;-60
2022/03/26 00:50:56;;;;;;;30.55;13.40;;;;;;;11.76;40.73;103061.19;4970458;28;123857;-61
2022/03/26 00:53:23;;;;;;;33.17;13.63;;;;;;;11.71;40.66;103063.00;4972579;28;108993;-61
2022/03/26 00:55:51;;;;;;;28.73;13.00;;;;;;;11.65;40.81;103052.47;4972602;28;110036;-61
2022/03/26 00:58:18;;;;;;;27.95;13.93;;;;;;;11.61;40.94;103056.09;4973121;28;125273;-61
2022/03/26 01:00:45;;;;;;;32.30;14.15;;;;;;;11.57;40.93;103055.25;4972508;28;126694;-61
2022/03/26 01:03:13;;;;;;;29.92;14.77;;;;;;;11.54;41.08;103057.06;4973029;28;108623;-61
2022/03/26 01:05:40;;;;;;;29.80;13.75;;;;;;;11.50;41.12;103058.88;4971557;28;109967;-61
2022/03/26 01:08:07;;;;;;;32.17;14.05;;;;;;;11.44;41.00;103054.53;4968873;28;123857;-62
2022/03/26 01:10:34;;;;;;;33.80;14.63;;;;;;;11.42;40.95;103066.06;4971347;28;123929;-61
2022/03/26 01:13:03;;;;;;;32.28;12.80;;;;;;;11.34;40.98;103058.22;4974030;28;110324;-61
2022/03/26 01:15:30;;;;;;;31.55;13.57;;;;;;;11.24;41.20;103061.84;4972456;28;109304;-61
2022/03/26 01:17:57;;;;;;;30.70;13.50;;;;;;;11.13;41.10;103064.63;4973565;28;124509;-61
2022/03/26 01:20:24;;;;;;;30.75;14.35;;;;;;;11.03;41.59;103057.69;4969918;28;123830;-61
2022/03/26 01:22:52;;;;;;;32.28;14.13;;;;;;;10.95;41.64;103060.44;4972350;28;109279;-60
2022/03/26 01:25:19;;;;;;;30.58;13.15;;;;;;;10.90;41.46;103056.94;4973338;28;110501;-61
2022/03/26 01:27:46;;;;;;;26.20;12.60;;;;;;;10.88;41.83;103069.34;4968162;28;124029;-61
2022/03/26 01:30:13;;;;;;;28.00;12.77;;;;;;;10.86;41.94;103065.81;4971229;28;124109;-60
2022/03/26 01:32:43;;;;;;;28.92;13.40;;;;;;;10.84;42.01;103062.31;4973477;28;111002;-60
2022/03/26 01:35:12;;;;;;;30.83;14.10;;;;;;;10.82;42.01;103069.41;4970957;28;110628;-60
2022/03/26 01:37:39;;;;;;;31.77;14.25;;;;;;;10.78;41.91;103062.38;4972271;28;123666;-60
2022/03/26 01:40:07;;;;;;;30.65;13.73;;;;;;;10.75;41.97;103065.06;4980222;28;122655;-59
2022/03/26 01:42:34;;;;;;;29.90;13.80;;;;;;;10.70;41.78;103063.34;4972421;28;109020;-61
2022/03/26 01:45:02;;;;;;;32.25;14.60;;;;;;;10.66;42.02;103058.06;4968223;28;109765;-61
2022/03/26 01:47:29;;;;;;;30.73;14.23;;;;;;;10.61;42.22;103060.78;4970770;28;123734;-60
2022/03/26 01:49:57;;;;;;;32.70;13.73;;;;;;;10.59;42.30;103062.56;4965901;28;124852;-60
2022/03/26 01:52:24;;;;;;;29.23;13.32;;;;;;;10.57;42.34;103064.34;4970156;28;109202;-60
2022/03/26 01:54:51;;;;;;;26.17;14.05;;;;;;;10.54;42.24;103064.38;4970569;28;110233;-60
2022/03/26 01:57:18;;;;;;;33.08;13.82;;;;;;;10.52;42.54;103060.84;4969497;28;123882;-60
2022/03/26 01:59:45;;;;;;;28.95;13.65;;;;;;;10.50;42.74;103060.00;4967674;28;124049;-60
2022/03/26 02:02:13;;;;;;;25.83;13.02;;;;;;;10.48;42.44;103065.28;4972510;28;109302;-60
2022/03/26 02:04:40;;;;;;;34.42;14.15;;;;;;;10.47;42.77;103066.22;4970971;28;110025;-60
2022/03/26 02:07:07;;;;;;;30.10;13.90;;;;;;;10.45;42.69;103068.00;4968582;28;123963;-60
2022/03/26 02:09:37;;;;;;;29.85;14.10;;;;;;;10.44;42.89;103058.28;4971193;28;124339;-60
2022/03/26 02:12:27;;;;;;;30.38;13.18;;;;;;;10.41;42.64;103062.72;4971576;28;109259;-60
2022/03/26 02:14:56;;;;;;;34.45;14.07;;;;;;;10.39;42.80;103069.81;4970276;28;110446;-60
2022/03/26 02:17:24;;;;;;;30.50;14.52;;;;;;;10.36;43.02;103059.22;4970425;28;123799;-60
2022/03/26 02:19:54;;;;;;;35.15;14.15;;;;;;;10.32;42.74;103056.63;4968395;28;123856;-60
2022/03/26 02:22:23;;;;;;;33.53;14.10;;;;;;;10.31;43.20;103062.78;4968714;28;110523;-61
2022/03/26 02:24:51;;;;;;;31.95;13.90;;;;;;;10.31;43.21;103062.78;4972897;28;109951;-59
2022/03/26 02:27:24;;;;;;;33.15;14.82;;;;;;;10.28;43.04;103057.50;4971556;28;125520;-59
2022/03/26 02:29:52;;;;;;;30.73;13.25;;;;;;;10.27;43.25;103058.38;4966875;28;123017;-59
2022/03/26 02:32:23;;;;;;;29.92;14.32;;;;;;;10.23;42.96;103064.59;4970259;28;109528;-60
2022/03/26 02:34:51;;;;;;;34.80;14.00;;;;;;;10.20;42.84;103056.66;4971903;28;109073;-59
2022/03/26 02:37:30;;;;;;;32.35;13.02;;;;;;;10.17;43.20;103059.38;4969741;28;123979;-59
2022/03/26 02:39:58;;;;;;;31.92;14.85;;;;;;;10.15;43.38;103055.81;4969173;28;124458;-59
2022/03/26 02:42:26;;;;;;;32.20;13.35;;;;;;;10.12;42.93;103061.16;4970808;28;109481;-60
2022/03/26 02:44:53;;;;;;;32.33;14.75;;;;;;;10.09;43.14;103061.16;4971631;28;109779;-60
2022/03/26 02:47:21;;;;;;;31.65;13.98;;;;;;;10.07;43.04;103063.81;4971665;28;124135;-59
2022/03/26 02:49:48;;;;;;;30.45;14.25;;;;;;;10.05;43.24;103059.44;4972508;28;123899;-59
2022/03/26 02:52:16;;;;;;;29.75;13.73;;;;;;;10.01;43.37;103060.34;4973486;28;109081;-59
2022/03/26 02:54:43;;;;;;;33.50;13.88;;;;;;;9.99;43.40;103059.50;4973999;28;109808;-60
2022/03/26 02:57:10;;;;;;;32.38;13.85;;;;;;;9.96;43.16;103059.50;4973050;28;124328;-60
2022/03/26 02:59:37;;;;;;;31.00;13.13;;;;;;;9.91;43.29;103063.06;4974917;28;122785;-60
2022/03/26 03:02:07;;;;;;;27.63;12.85;;;;;;;9.89;43.45;103063.97;4973670;28;108991;-59
2022/03/26 03:04:35;;;;;;;26.45;12.70;;;;;;;9.86;43.50;103062.19;4974810;28;108939;-60
2022/03/26 03:07:02;;;;;;;28.42;12.85;;;;;;;9.83;43.20;103053.41;4972648;28;124187;-60
2022/03/26 03:09:29;;;;;;;29.40;13.18;;;;;;;9.81;43.58;103050.75;4973846;28;124266;-60
2022/03/26 03:11:57;;;;;;;30.42;13.88;;;;;;;9.78;43.31;103050.78;4973261;28;110183;-60
2022/03/26 03:14:24;;;;;;;30.42;12.90;;;;;;;9.76;43.68;103047.28;4974199;28;110102;-59
2022/03/26 03:16:51;;;;;;;30.38;13.18;;;;;;;9.74;43.76;103057.00;4974596;28;123184;-60
2022/03/26 03:19:18;;;;;;;34.00;13.40;;;;;;;9.71;43.42;103054.38;4975162;28;123849;-60
2022/03/26 03:21:46;;;;;;;32.50;13.20;;;;;;;9.67;43.71;103068.50;4972756;28;109148;-60
2022/03/26 03:24:13;;;;;;;28.70;13.82;;;;;;;9.63;43.54;103070.28;4975488;28;110460;-60
2022/03/26 03:26:40;;;;;;;32.85;13.52;;;;;;;9.58;43.65;103068.53;4972604;28;123841;-60
2022/03/26 03:29:07;;;;;;;29.58;13.18;;;;;;;9.54;43.57;103065.91;4974871;28;123904;-59
2022/03/26 03:31:35;;;;;;;27.95;13.43;;;;;;;9.48;43.54;103076.53;4974708;28;108949;-60
2022/03/26 03:34:03;;;;;;;32.38;14.38;;;;;;;9.44;43.75;103072.13;4975460;28;110489;-59
2022/03/26 03:36:30;;;;;;;34.83;14.43;;;;;;;9.40;43.95;103075.69;4972805;28;124508;-60
2022/03/26 03:38:57;;;;;;;30.00;13.60;;;;;;;9.37;43.99;103074.81;4972529;28;123796;-59
2022/03/26 03:41:24;;;;;;;31.08;13.95;;;;;;;9.31;44.00;103076.59;4969801;28;109059;-61
2022/03/26 03:43:51;;;;;;;31.35;12.52;;;;;;;9.26;43.76;103066.91;4975208;28;110679;-60
2022/03/26 03:46:18;;;;;;;31.73;13.38;;;;;;;9.21;43.88;103069.59;4971782;28;124739;-60
2022/03/26 03:48:46;;;;;;;29.48;13.57;;;;;;;9.16;44.03;103074.88;4972164;28;124527;-60
2022/03/26 03:51:13;;;;;;;33.58;14.75;;;;;;;9.12;43.97;103070.50;4970662;28;114331;-60
2022/03/26 03:53:40;;;;;;;33.75;13.98;;;;;;;9.07;44.22;103066.09;4972478;28;114086;-60
2022/03/26 03:56:07;;;;;;;32.58;13.48;;;;;;;9.03;43.95;103065.22;4971616;28;124424;-60
2022/03/26 03:58:34;;;;;;;27.02;12.63;;;;;;;9.01;44.13;103072.28;4968936;28;124514;-60
2022/03/26 04:01:03;;;;;;;27.77;12.80;;;;;;;8.98;44.36;103072.28;4968720;28;115589;-60
2022/03/26 04:03:31;;;;;;;30.52;12.93;;;;;;;8.96;44.36;103079.34;4971757;28;114745;-60
2022/03/26 04:06:01;;;;;;;31.77;14.50;;;;;;;8.93;44.00;103074.06;4970849;28;124126;-60
2022/03/26 04:08:29;;;;;;;31.33;13.32;;;;;;;8.89;44.49;103077.59;4968477;28;124170;-60
2022/03/26 04:10:56;;;;;;;31.70;14.38;;;;;;;8.85;44.34;103075.84;4967950;28;114672;-60
2022/03/26 04:13:23;;;;;;;29.80;13.65;;;;;;;8.81;44.33;103074.09;4970757;28;114128;-60
2022/03/26 04:15:51;;;;;;;32.40;14.50;;;;;;;8.80;44.32;103072.31;4969431;28;124825;-59
2022/03/26 04:18:18;;;;;;;31.73;14.23;;;;;;;8.77;44.39;103084.66;4969486;28;124784;-60
2022/03/26 04:20:46;;;;;;;32.80;13.77;;;;;;;8.71;44.39;103074.09;4970472;28;114610;-59
2022/03/26 04:23:13;;;;;;;29.58;12.93;;;;;;;8.70;44.39;103082.03;4971748;28;113819;-60
2022/03/26 04:25:40;;;;;;;33.67;14.00;;;;;;;8.66;44.75;103073.22;4968944;28;124511;-60
2022/03/26 04:28:08;;;;;;;32.15;13.50;;;;;;;8.65;44.74;103078.53;4970877;28;123908;-63
2022/03/26 04:30:35;;;;;;;29.45;13.35;;;;;;;8.62;44.87;103074.09;4969628;28;114862;-60
2022/03/26 04:33:02;;;;;;;24.92;12.50;;;;;;;8.61;44.80;103080.28;4970657;28;115419;-60
2022/03/26 04:35:30;;;;;;;29.52;13.57;;;;;;;8.58;44.86;103082.91;4970821;28;123880;-60
2022/03/26 04:37:58;;;;;;;31.40;13.48;;;;;;;8.57;44.66;103071.47;4971506;28;123821;-60
2022/03/26 04:40:26;;;;;;;35.72;13.55;;;;;;;8.56;44.87;103079.41;4970948;28;115063;-59
2022/03/26 04:42:54;;;;;;;29.52;13.02;;;;;;;8.54;44.89;103081.16;4970439;28;113698;-60
2022/03/26 04:45:23;;;;;;;32.33;13.43;;;;;;;8.52;44.92;103077.66;4969059;28;123864;-59
2022/03/26 04:47:50;;;;;;;38.83;13.82;;;;;;;8.48;44.91;103083.81;4966796;28;124056;-59
2022/03/26 04:50:17;;;;;;;29.27;13.23;;;;;;;8.44;44.53;103079.38;4969888;28;115670;-59
2022/03/26 04:52:44;;;;;;;30.95;13.70;;;;;;;8.40;44.94;103078.50;4971396;28;115329;-60
2022/03/26 04:55:12;;;;;;;30.48;13.45;;;;;;;8.37;45.17;103083.78;4971781;28;124046;-59
2022/03/26 04:57:40;;;;;;;33.78;14.65;;;;;;;8.33;44.81;103082.88;4969529;28;124086;-60
2022/03/26 05:00:10;;;;;;;32.13;14.05;;;;;;;8.31;45.20;103078.50;4956396;28;113331;-60
2022/03/26 05:02:39;;;;;;;28.77;13.90;;;;;;;8.27;45.22;103088.19;4969760;28;114112;-60
2022/03/26 05:05:07;;;;;;;35.72;14.60;;;;;;;8.23;45.03;103089.06;4971624;28;124294;-60
2022/03/26 05:07:47;;;;;;;31.73;13.63;;;;;;;8.20;45.16;103081.13;4971838;28;124656;-60
2022/03/26 05:10:18;;;;;;;36.58;14.27;;;;;;;8.15;45.23;103088.16;4969273;28;114622;-60
2022/03/26 05:12:47;;;;;;;31.27;13.88;;;;;;;8.13;45.12;103084.63;4969572;28;114149;-60
2022/03/26 05:15:16;;;;;;;32.83;13.13;;;;;;;8.09;45.28;103083.75;4969774;28;123934;-59
2022/03/26 05:17:43;;;;;;;33.13;13.55;;;;;;;8.08;45.34;103091.66;4970385;28;124382;-61
2022/03/26 05:20:14;;;;;;;32.95;13.65;;;;;;;8.08;45.54;103086.38;4967420;28;115141;-59
2022/03/26 05:22:45;;;;;;;29.05;13.70;;;;;;;8.05;45.34;103089.03;4968603;28;114526;-59
2022/03/26 05:25:13;;;;;;;33.92;14.05;;;;;;;8.04;45.64;103089.88;4966792;28;123026;-59
2022/03/26 05:27:48;;;;;;;34.00;14.48;;;;;;;8.02;45.61;103096.94;4969336;28;124029;-59
2022/03/26 05:30:16;;;;;;;35.83;14.43;;;;;;;7.99;45.38;103093.41;4970200;28;114552;-59
2022/03/26 05:32:43;;;;;;;29.25;13.40;;;;;;;7.97;45.58;103105.72;4969108;28;113823;-59
2022/03/26 05:35:14;;;;;;;32.92;13.95;;;;;;;7.94;45.60;103095.16;4966226;28;124642;-59
2022/03/26 05:37:42;;;;;;;30.08;14.07;;;;;;;7.92;45.58;103102.19;4968330;28;124379;-59
2022/03/26 05:40:11;;;;;;;33.90;14.13;;;;;;;7.90;45.33;103103.94;4967410;28;114637;-59
2022/03/26 05:42:38;;;;;;;33.38;13.27;;;;;;;7.88;45.69;103100.41;4965334;28;115243;-59
2022/03/26 05:45:07;;;;;;;34.72;13.45;;;;;;;7.87;45.88;103098.63;4967555;28;125257;-59
2022/03/26 05:47:35;;;;;;;30.88;13.23;;;;;;;7.87;45.85;103101.28;4968323;28;124611;-59
2022/03/26 05:50:04;;;;;;;31.45;13.63;;;;;;;7.88;45.79;103104.81;4967585;28;114255;-60
2022/03/26 05:52:31;;;;;;;32.00;13.57;;;;;;;7.85;45.96;103105.66;4967257;28;114082;-59
2022/03/26 05:54:58;;;;;;;31.50;13.25;;;;;;;7.86;45.74;103107.44;4967868;28;124537;-59
2022/03/26 05:57:26;;;;;;;33.17;13.52;;;;;;;7.87;46.11;103098.63;4967850;28;124134;-59
2022/03/26 05:59:53;;;;;;;33.90;14.05;;;;;;;7.88;45.89;103105.69;4967344;28;114314;-59
2022/03/26 06:02:21;;;;;;;30.08;14.13;;;;;;;7.89;45.96;103102.19;4969293;28;112998;-59
2022/03/26 06:04:48;;;;;;;36.42;15.10;;;;;;;7.92;46.27;103112.72;4968431;28;124090;-60
2022/03/26 06:07:15;;;;;;;32.50;14.68;;;;;;;7.96;46.13;103119.78;4969596;28;123860;-59
2022/03/26 06:09:42;;;;;;;34.30;13.68;;;;;;;7.98;46.36;103123.28;4970447;28;114439;-59
2022/03/26 06:12:10;;;;;;;47.45;14.40;;;;;;;8.01;46.42;103126.84;4956925;28;113673;-59
2022/03/26 06:14:37;;;;;;;33.40;14.55;;;;;;;8.04;46.43;103137.38;4967899;28;124140;-59
2022/03/26 06:17:04;;;;;;;35.95;14.38;;;;;;;8.05;46.36;103128.59;4967674;28;123925;-59
2022/03/26 06:19:32;;;;;;;28.25;13.85;;;;;;;8.06;46.39;103125.06;4969808;28;115775;-59
2022/03/26 06:21:59;;;;;;;37.20;15.73;;;;;;;8.09;46.87;103130.38;4970065;28;114345;-59
2022/03/26 06:24:26;;;;;;;34.05;15.10;;;;;;;8.13;46.70;103137.41;4970267;28;124450;-59
2022/03/26 06:26:53;;;;;;;35.47;14.82;;;;;;;8.19;46.87;103138.31;4969467;28;123923;-59
2022/03/26 06:29:20;;;;;;;38.60;14.60;;;;;;;8.25;46.61;103142.72;4968141;28;115965;-59
2022/03/26 06:31:48;;;;;;;38.85;14.73;;;;;;;8.34;47.03;103137.47;4968296;28;114789;-59
2022/03/26 06:34:16;;;;;;;42.67;15.82;;;;;;;8.47;47.22;103142.78;4969288;28;124266;-59
2022/03/26 06:36:43;;;;;;;39.55;16.38;;;;;;;8.59;47.28;103137.53;4966336;28;124472;-60
2022/03/26 06:39:10;;;;;;;48.03;16.02;;;;;;;8.74;47.19;103137.50;4967714;28;113223;-60
2022/03/26 06:41:41;;;;;;;37.60;14.88;;;;;;;8.90;47.52;103148.06;4967794;28;113994;-60
2022/03/26 06:44:09;;;;;;;40.60;17.10;;;;;;;9.05;47.63;103140.13;4969478;28;124159;-60
2022/03/26 06:46:37;;;;;;;44.63;16.58;;;;;;;9.24;47.76;103140.09;4967789;28;124471;-61
2022/03/26 06:49:07;;;;;;;37.58;16.45;;;;;;;9.42;47.40;103142.69;4967717;28;115076;-60
2022/03/26 06:51:35;;;;;;;38.05;15.93;;;;;;;9.60;47.39;103135.56;4966977;28;113888;-61
2022/03/26 06:54:03;;;;;;;36.60;16.20;;;;;;;9.78;47.28;103140.78;4969107;28;123715;-60
2022/03/26 06:56:30;;;;;;;38.20;16.77;;;;;;;9.96;47.66;103138.91;4966464;28;123967;-61
2022/03/26 06:58:58;;;;;;;36.85;15.52;;;;;;;10.15;47.65;103135.25;4967604;28;114553;-60
2022/03/26 07:01:25;;;;;;;37.35;16.42;;;;;;;10.36;47.83;103133.38;4968976;28;112847;-60
2022/03/26 07:03:59;;;;;;;39.33;15.93;;;;;;;10.60;47.68;103141.16;4968547;28;123251;-61
2022/03/26 07:06:26;;;;;;;35.38;16.17;;;;;;;10.81;47.52;103136.56;4966845;28;124186;-61
2022/03/26 07:08:54;;;;;;;36.15;16.67;;;;;;;10.99;47.04;103141.69;4967517;28;114169;-61
2022/03/26 07:11:21;;;;;;;36.20;15.95;;;;;;;11.16;47.08;103133.56;4967101;28;114477;-61
2022/03/26 07:13:49;;;;;;;37.65;17.30;;;;;;;11.33;46.87;103146.66;4968890;28;124424;-61
2022/03/26 07:16:16;;;;;;;36.53;16.67;;;;;;;11.47;46.59;103144.72;4969212;28;124098;-61
2022/03/26 07:18:44;;;;;;;39.80;16.92;;;;;;;11.61;46.67;103146.31;4969428;28;115557;-61
2022/03/26 07:21:11;;;;;;;36.33;16.60;;;;;;;11.74;46.60;103147.94;4966602;28;114834;-61
2022/03/26 07:23:38;;;;;;;37.40;16.70;;;;;;;11.87;46.65;103153.97;4968749;28;123857;-61
2022/03/26 07:26:06;;;;;;;35.95;16.42;;;;;;;11.99;46.23;103142.31;4966899;28;123925;-61
2022/03/26 07:28:33;;;;;;;35.78;15.95;;;;;;;12.11;46.38;103150.13;4968159;28;114612;-61
2022/03/26 07:31:01;;;;;;;33.92;15.40;;;;;;;12.24;46.35;103146.38;4959360;28;112985;-61
2022/03/26 07:33:29;;;;;;;38.05;16.25;;;;;;;12.37;46.25;103154.16;4970241;28;124161;-61
2022/03/26 07:35:56;;;;;;;36.28;16.17;;;;;;;12.51;46.31;103151.28;4969467;28;125372;-62
2022/03/26 07:38:23;;;;;;;34.55;15.90;;;;;;;12.66;46.25;103146.59;4970120;28;114216;-62
2022/03/26 07:40:50;;;;;;;32.78;15.93;;;;;;;12.82;45.79;103162.28;4971159;28;113893;-61
2022/03/26 07:43:18;;;;;;;36.08;16.40;;;;;;;12.94;45.71;103151.44;4969169;28;124480;-61
2022/03/26 07:45:46;;;;;;;34.67;15.27;;;;;;;13.05;45.54;103149.47;4969611;28;124174;-61
2022/03/26 07:48:13;;;;;;;37.00;16.83;;;;;;;13.17;45.45;103153.69;4970263;28;114554;-61
2022/03/26 07:50:41;;;;;;;36.03;15.85;;;;;;;13.27;45.40;103149.06;4970562;28;114418;-61
2022/03/26 07:53:08;;;;;;;35.05;16.58;;;;;;;13.40;45.46;103155.91;4970701;28;124028;-62
2022/03/26 07:55:35;;;;;;;31.77;14.75;;;;;;;13.53;45.42;103145.03;4971599;28;123919;-62
2022/03/26 07:58:02;;;;;;;32.28;15.75;;;;;;;13.71;45.21;103154.41;4972478;28;115270;-62
2022/03/26 08:00:29;;;;;;;29.35;15.23;;;;;;;13.89;45.03;103153.16;4969240;28;114008;-62
2022/03/26 08:02:56;;;;;;;35.38;16.00;;;;;;;14.04;44.75;103158.13;4971007;28;123661;-62
2022/03/26 08:05:24;;;;;;;35.45;15.40;;;;;;;14.18;44.68;103156.06;4966637;28;124455;-62
2022/03/26 08:07:51;;;;;;;34.85;15.27;;;;;;;14.34;44.42;103166.34;4968351;28;115927;-62
2022/03/26 08:10:18;;;;;;;28.67;14.25;;;;;;;14.47;44.44;103162.47;4970207;28;114150;-62
2022/03/26 08:12:45;;;;;;;27.63;14.00;;;;;;;14.62;44.23;103165.69;4970320;28;124199;-62
2022/03/26 08:15:12;;;;;;;33.10;14.77;;;;;;;14.76;43.84;103158.22;4967850;28;122654;-62
2022/03/26 08:17:40;;;;;;;30.20;13.63;;;;;;;14.85;43.87;103174.00;4972814;28;114060;-61
2022/03/26 08:20:08;;;;;;;34.75;14.70;;;;;;;14.97;43.63;103173.72;4970935;28;113629;-62
2022/03/26 08:22:35;;;;;;;34.47;14.10;;;;;;;15.09;43.45;103176.97;4970884;28;124400;-62
2022/03/26 08:25:03;;;;;;;30.25;13.88;;;;;;;15.22;43.23;103183.72;4970020;28;123534;-62
2022/03/26 08:27:30;;;;;;;32.97;13.25;;;;;;;15.34;43.31;103183.38;4969532;28;114611;-61
2022/03/26 08:29:57;;;;;;;30.92;13.02;;;;;;;15.47;42.95;103185.72;4969502;28;114343;-62
2022/03/26 08:32:24;;;;;;;32.40;13.38;;;;;;;15.58;42.70;103192.50;4968363;28;124027;-61
2022/03/26 08:34:51;;;;;;;27.30;12.02;;;;;;;15.71;42.60;103192.16;4968437;28;123740;-61
2022/03/26 08:37:19;;;;;;;28.23;12.75;;;;;;;15.83;42.32;103196.28;4970701;28;114260;-62
2022/03/26 08:39:46;;;;;;;27.63;12.80;;;;;;;15.93;41.97;103197.75;4968198;28;114624;-62
2022/03/26 08:42:13;;;;;;;27.90;12.10;;;;;;;16.03;41.81;103193.91;4967193;28;124325;-62
2022/03/26 08:44:40;;;;;;;25.80;12.73;;;;;;;16.13;41.77;103192.69;4969273;28;124622;-61
2022/03/26 08:47:07;;;;;;;29.60;13.00;;;;;;;16.27;41.51;103196.72;4971105;28;113465;-61
2022/03/26 08:49:36;;;;;;;25.00;11.93;;;;;;;16.37;41.22;103192.84;4969758;28;114107;-62
2022/03/26 08:52:04;;;;;;;27.23;12.18;;;;;;;16.47;41.02;103193.44;4971679;28;124080;-62
2022/03/26 08:54:31;;;;;;;27.92;12.10;;;;;;;16.59;41.17;103192.16;4971549;28;124262;-63
2022/03/26 08:56:59;;;;;;;29.08;12.95;;;;;;;16.71;40.89;103194.44;4970210;28;114491;-62
2022/03/26 08:59:26;;;;;;;32.08;12.85;;;;;;;16.84;40.65;103192.22;4969758;28;115653;-62
2022/03/26 09:01:53;;;;;;;24.85;10.95;;;;;;;16.95;40.34;103186.53;4965759;28;124096;-62
2022/03/26 09:04:21;;;;;;;25.92;11.88;;;;;;;17.05;39.95;103193.31;4971340;28;124428;-62
2022/03/26 09:06:48;;;;;;;25.98;12.15;;;;;;;17.13;39.88;103194.78;4970308;28;113422;-62
2022/03/26 09:09:16;;;;;;;28.13;12.70;;;;;;;17.22;39.77;103182.88;4968762;28;114546;-63
2022/03/26 09:11:43;;;;;;;26.83;11.10;;;;;;;17.34;39.57;103186.06;4967921;28;124177;-62
2022/03/26 09:14:12;;;;;;;26.38;10.50;;;;;;;17.45;39.19;103191.91;4970890;28;124233;-62
2022/03/26 09:16:40;;;;;;;23.75;10.63;;;;;;;17.54;38.99;103194.25;4967575;28;114123;-62
2022/03/26 09:19:07;;;;;;;22.90;9.98;;;;;;;17.64;38.83;103195.63;4970998;28;114128;-62
2022/03/26 09:21:34;;;;;;;23.95;10.60;;;;;;;17.76;38.73;103188.06;4967215;28;123907;-62
2022/03/26 09:24:02;;;;;;;23.17;10.35;;;;;;;17.85;38.54;103193.09;4970732;28;123791;-63
2022/03/26 09:26:29;;;;;;;22.75;10.32;;;;;;;17.95;38.03;103199.00;4968944;28;114348;-62
2022/03/26 09:28:56;;;;;;;20.92;10.50;;;;;;;18.02;37.55;103196.00;4970735;28;113337;-64
2022/03/26 09:31:23;;;;;;;20.27;9.27;;;;;;;18.11;37.68;103197.47;4969916;28;122909;-62
2022/03/26 09:33:51;;;;;;;20.73;10.45;;;;;;;18.20;37.49;103198.91;4971254;28;123735;-62
2022/03/26 09:36:18;;;;;;;20.85;10.27;;;;;;;18.28;37.16;103196.81;4971903;28;114701;-62
2022/03/26 09:38:45;;;;;;;19.95;10.43;;;;;;;18.36;37.03;103200.03;4969746;28;113942;-62
2022/03/26 09:41:12;;;;;;;26.08;10.25;;;;;;;18.44;37.01;103203.31;4968512;28;123955;-63
2022/03/26 09:43:40;;;;;;;28.23;11.25;;;;;;;18.55;36.80;103199.28;4968008;28;123917;-62
2022/03/26 09:46:07;;;;;;;25.42;10.10;;;;;;;18.63;36.74;103197.19;4970272;28;114309;-62
2022/03/26 09:48:37;;;;;;;21.80;9.90;;;;;;;18.73;36.60;103198.53;4966897;28;113745;-63
2022/03/26 09:51:04;;;;;;;23.23;9.98;;;;;;;18.82;36.38;103198.19;4970375;28;124069;-62
2022/03/26 09:53:33;;;;;;;22.42;11.27;;;;;;;18.92;36.24;103192.44;4969028;28;124036;-62
2022/03/26 09:56:00;;;;;;;22.42;10.50;;;;;;;19.02;36.10;103191.06;4968403;28;114316;-63
2022/03/26 09:58:27;;;;;;;27.45;11.85;;;;;;;19.11;35.98;103188.00;4969776;28;114086;-62
2022/03/26 10:00:56;;;;;;;33.47;13.05;;;;;;;19.19;35.87;103196.59;4969402;28;123993;-63
2022/03/26 10:03:23;;;;;;;29.50;12.95;;;;;;;19.28;35.90;103189.06;4969382;28;123665;-62
2022/03/26 10:06:01;;;;;;;26.33;11.82;;;;;;;19.35;35.73;103196.78;4969277;28;114838;-63
2022/03/26 10:08:33;;;;;;;30.15;12.88;;;;;;;19.42;35.78;103187.50;4969789;28;114936;-63
2022/03/26 10:11:01;;;;;;;33.28;13.55;;;;;;;19.48;35.71;103191.75;4967179;28;123992;-63
2022/03/26 10:13:46;;;;;;;27.98;12.45;;;;;;;19.52;35.54;103187.09;4969985;28;124148;-62
2022/03/26 10:16:15;;;;;;;26.55;11.82;;;;;;;19.57;35.39;103185.06;4967462;28;114465;-62
2022/03/26 10:18:46;;;;;;;27.77;12.00;;;;;;;19.60;35.57;103185.78;4972004;28;96861;-62
2022/03/26 10:21:16;;;;;;;24.77;11.77;;;;;;;19.67;35.34;103185.53;4969067;28;124600;-63
2022/03/26 10:23:45;;;;;;;24.55;11.60;;;;;;;19.71;35.34;103184.44;4970425;28;123549;-62
2022/03/26 10:26:15;;;;;;;25.75;9.93;;;;;;;19.76;35.64;103180.63;4968722;28;114530;-62
2022/03/26 10:28:48;;;;;;;22.48;11.20;;;;;;;19.81;35.69;103188.47;4969307;28;114009;-63
2022/03/26 10:34:07;;;;;;;21.10;10.65;;;;;;;19.92;36.03;103170.00;4970525;28;123671;-63
2022/03/26 10:36:36;;;;;;;24.55;11.77;;;;;;;19.99;36.03;103176.84;4968130;28;115889;-63
2022/03/26 10:39:05;;;;;;;21.55;10.88;;;;;;;20.07;35.95;103178.28;4968459;28;115555;-63
2022/03/26 10:41:34;;;;;;;20.85;10.43;;;;;;;20.12;35.94;103177.13;4967805;28;124874;-63
2022/03/26 10:44:07;;;;;;;18.25;9.77;;;;;;;20.16;35.86;103167.09;4969921;28;123835;-62
2022/03/26 10:46:45;;;;;;;22.83;10.30;;;;;;;20.21;36.01;103170.41;4967728;28;114161;-62
2022/03/26 10:49:23;;;;;;;17.08;9.15;;;;;;;20.29;35.73;103173.63;4965146;28;114112;-62
2022/03/26 10:51:51;;;;;;;19.25;10.55;;;;;;;20.36;36.03;103169.69;4966982;28;123799;-62
2022/03/26 10:54:18;;;;;;;17.23;9.27;;;;;;;20.41;35.68;103167.63;4970981;28;123633;-64
2022/03/26 10:56:45;;;;;;;14.73;9.23;;;;;;;20.48;35.98;103162.81;4968814;28;114226;-63
2022/03/26 10:59:12;;;;;;;19.38;9.20;;;;;;;20.52;35.52;103168.91;4971171;28;114910;-62
2022/03/26 11:01:39;;;;;;;19.02;9.23;;;;;;;20.54;35.79;103158.94;4968895;28;124117;-62
2022/03/26 11:04:07;;;;;;;17.67;8.25;;;;;;;20.59;35.80;103164.97;4969191;28;124615;-63
2022/03/26 11:06:38;;;;;;;20.45;9.00;;;;;;;20.63;35.76;103155.81;4967035;28;114381;-62
2022/03/26 11:09:07;;;;;;;16.42;8.73;;;;;;;20.65;35.71;103148.53;4970414;28;114903;-62
2022/03/26 11:11:36;;;;;;;16.00;8.25;;;;;;;20.68;35.66;103148.38;4972653;28;124101;-62